CFS7284 KLBB-KAFW
Flight info
| Callsign | CFS7284 |
|---|---|
| Flight time | N/A |
| Altitude | 19000 |
| Route | DCT CDS DCT SPS MOTZA1 |
| Aircraft | AT73/M-SDFGIRY/S |
Departure
| Time | 2026-04-28 22:44 |
|---|---|
| Airport | Lubbock Preston Smith International Airport (KLBB) |
Arrival
| Time | N/A |
|---|---|
| Airport | Perot Field/Fort Worth Alliance Airport (KAFW) |
| Time | Latitude | Longitude | Altitude | Speed | Heading |
|---|---|---|---|---|---|
| 2026-04-28 22:24 | 33.67324 | -101.83349 | 3265 ft | 0 kts | 270° |
| 2026-04-28 22:26 | 33.67324 | -101.83335 | 3263 ft | 4 kts | 295° |
| 2026-04-28 22:26 | 33.67321 | -101.83330 | 3264 ft | 1 kts | 3° |
| 2026-04-28 22:26 | 33.67317 | -101.83331 | 3261 ft | 0 kts | 3° |
| 2026-04-28 22:30 | 33.67318 | -101.83331 | 3261 ft | 0 kts | 3° |
| 2026-04-28 22:31 | 33.67324 | -101.83327 | 3264 ft | 2 kts | 25° |
| 2026-04-28 22:32 | 33.67349 | -101.83287 | 3263 ft | 10 kts | 52° |
| 2026-04-28 22:32 | 33.67377 | -101.83268 | 3263 ft | 6 kts | 22° |
| 2026-04-28 22:32 | 33.67399 | -101.83203 | 3264 ft | 10 kts | 86° |
| 2026-04-28 22:32 | 33.67399 | -101.83092 | 3262 ft | 15 kts | 88° |
| 2026-04-28 22:33 | 33.67399 | -101.82976 | 3259 ft | 14 kts | 92° |
| 2026-04-28 22:33 | 33.67400 | -101.82828 | 3258 ft | 19 kts | 89° |
| 2026-04-28 22:33 | 33.67370 | -101.82703 | 3261 ft | 13 kts | 162° |
| 2026-04-28 22:33 | 33.67273 | -101.82702 | 3260 ft | 15 kts | 180° |
| 2026-04-28 22:34 | 33.67162 | -101.82701 | 3262 ft | 17 kts | 179° |
| 2026-04-28 22:34 | 33.67044 | -101.82699 | 3265 ft | 17 kts | 180° |
| 2026-04-28 22:34 | 33.66924 | -101.82699 | 3265 ft | 17 kts | 179° |
| 2026-04-28 22:34 | 33.66800 | -101.82698 | 3265 ft | 19 kts | 180° |
| 2026-04-28 22:35 | 33.66668 | -101.82697 | 3264 ft | 19 kts | 179° |
| 2026-04-28 22:35 | 33.66538 | -101.82697 | 3265 ft | 19 kts | 179° |
| 2026-04-28 22:35 | 33.66399 | -101.82697 | 3261 ft | 21 kts | 181° |
| 2026-04-28 22:35 | 33.66253 | -101.82695 | 3258 ft | 20 kts | 179° |
| 2026-04-28 22:36 | 33.66118 | -101.82694 | 3258 ft | 19 kts | 180° |
| 2026-04-28 22:36 | 33.66031 | -101.82649 | 3258 ft | 14 kts | 104° |
| 2026-04-28 22:36 | 33.66030 | -101.82508 | 3260 ft | 19 kts | 89° |
| 2026-04-28 22:36 | 33.66031 | -101.82342 | 3264 ft | 22 kts | 90° |
| 2026-04-28 22:37 | 33.66032 | -101.82161 | 3267 ft | 21 kts | 89° |
| 2026-04-28 22:37 | 33.66033 | -101.81982 | 3268 ft | 21 kts | 89° |
| 2026-04-28 22:37 | 33.66034 | -101.81791 | 3266 ft | 23 kts | 90° |
| 2026-04-28 22:37 | 33.66035 | -101.81598 | 3265 ft | 21 kts | 89° |
| 2026-04-28 22:38 | 33.66035 | -101.81419 | 3261 ft | 22 kts | 90° |
| 2026-04-28 22:38 | 33.66037 | -101.81244 | 3259 ft | 22 kts | 89° |
| 2026-04-28 22:38 | 33.66037 | -101.81055 | 3258 ft | 20 kts | 89° |
| 2026-04-28 22:38 | 33.66038 | -101.80893 | 3257 ft | 15 kts | 90° |
| 2026-04-28 22:39 | 33.66038 | -101.80759 | 3258 ft | 17 kts | 90° |
| 2026-04-28 22:39 | 33.66040 | -101.80610 | 3260 ft | 19 kts | 90° |
| 2026-04-28 22:39 | 33.66040 | -101.80444 | 3262 ft | 20 kts | 90° |
| 2026-04-28 22:39 | 33.66041 | -101.80274 | 3264 ft | 21 kts | 89° |
| 2026-04-28 22:40 | 33.66043 | -101.80094 | 3265 ft | 22 kts | 90° |
| 2026-04-28 22:40 | 33.66043 | -101.79898 | 3262 ft | 24 kts | 89° |
| 2026-04-28 22:40 | 33.66048 | -101.79720 | 3261 ft | 15 kts | 73° |
| 2026-04-28 22:40 | 33.66101 | -101.79682 | 3261 ft | 14 kts | 0° |
| 2026-04-28 22:41 | 33.66144 | -101.79682 | 3261 ft | 0 kts | 359° |
| 2026-04-28 22:42 | 33.66145 | -101.79682 | 3261 ft | 0 kts | 359° |
| 2026-04-28 22:43 | 33.66155 | -101.79682 | 3261 ft | 4 kts | 359° |
| 2026-04-28 22:43 | 33.66202 | -101.79684 | 3260 ft | 8 kts | 353° |
| 2026-04-28 22:43 | 33.66227 | -101.79705 | 3260 ft | 4 kts | 305° |
| 2026-04-28 22:43 | 33.66237 | -101.79752 | 3261 ft | 10 kts | 268° |
| 2026-04-28 22:44 | 33.66235 | -101.80117 | 3263 ft | 79 kts | 270° |
| 2026-04-28 22:44 | 33.66227 | -101.81021 | 3355 ft | 128 kts | 269° |
| 2026-04-28 22:44 | 33.66176 | -101.82115 | 3926 ft | 137 kts | 266° |
| 2026-04-28 22:44 | 33.66169 | -101.83306 | 4532 ft | 145 kts | 272° |
| 2026-04-28 22:45 | 33.66275 | -101.84527 | 5258 ft | 148 kts | 283° |
| 2026-04-28 22:45 | 33.66985 | -101.85433 | 5926 ft | 164 kts | 339° |
| 2026-04-28 22:45 | 33.68130 | -101.85251 | 6648 ft | 178 kts | 30° |
| 2026-04-28 22:45 | 33.68849 | -101.84036 | 7404 ft | 186 kts | 78° |
| 2026-04-28 22:46 | 33.68981 | -101.82506 | 8223 ft | 184 kts | 85° |
| 2026-04-28 22:46 | 33.69128 | -101.80989 | 9041 ft | 182 kts | 82° |
| 2026-04-28 22:46 | 33.69315 | -101.79481 | 9848 ft | 183 kts | 82° |
| 2026-04-28 22:46 | 33.69540 | -101.77963 | 10538 ft | 186 kts | 77° |
| 2026-04-28 22:47 | 33.69879 | -101.76439 | 11189 ft | 192 kts | 70° |
| 2026-04-28 22:47 | 33.70348 | -101.74934 | 11840 ft | 197 kts | 64° |
| 2026-04-28 22:47 | 33.70948 | -101.73432 | 12486 ft | 202 kts | 59° |
| 2026-04-28 22:47 | 33.71640 | -101.71941 | 13143 ft | 207 kts | 55° |
| 2026-04-28 22:48 | 33.72374 | -101.70439 | 13794 ft | 211 kts | 54° |
| 2026-04-28 22:48 | 33.73131 | -101.68902 | 14385 ft | 215 kts | 54° |
| 2026-04-28 22:48 | 33.73886 | -101.67339 | 14998 ft | 217 kts | 54° |
| 2026-04-28 22:48 | 33.74636 | -101.65766 | 15654 ft | 218 kts | 54° |
| 2026-04-28 22:49 | 33.75395 | -101.64170 | 16141 ft | 222 kts | 54° |
| 2026-04-28 22:49 | 33.76161 | -101.62541 | 16736 ft | 226 kts | 54° |
| 2026-04-28 22:49 | 33.76940 | -101.60881 | 17323 ft | 230 kts | 54° |
| 2026-04-28 22:49 | 33.77731 | -101.59190 | 17915 ft | 233 kts | 54° |
| 2026-04-28 22:50 | 33.78533 | -101.57473 | 18433 ft | 238 kts | 54° |
| 2026-04-28 22:50 | 33.79354 | -101.55704 | 18769 ft | 253 kts | 54° |
| 2026-04-28 22:50 | 33.80253 | -101.53751 | 18817 ft | 280 kts | 56° |
| 2026-04-28 22:50 | 33.81230 | -101.51615 | 18837 ft | 302 kts | 56° |
| 2026-04-28 22:51 | 33.82271 | -101.49341 | 18846 ft | 319 kts | 56° |
| 2026-04-28 22:51 | 33.83368 | -101.46954 | 18847 ft | 331 kts | 56° |
| 2026-04-28 22:51 | 33.84502 | -101.44496 | 18853 ft | 341 kts | 56° |
| 2026-04-28 22:51 | 33.85662 | -101.41974 | 18851 ft | 347 kts | 57° |
| 2026-04-28 22:52 | 33.86842 | -101.39413 | 18848 ft | 352 kts | 57° |
| 2026-04-28 22:52 | 33.88032 | -101.36824 | 18849 ft | 355 kts | 57° |
| 2026-04-28 22:52 | 33.89233 | -101.34215 | 18849 ft | 357 kts | 57° |
| 2026-04-28 22:52 | 33.90440 | -101.31594 | 18859 ft | 359 kts | 57° |
| 2026-04-28 22:53 | 33.91645 | -101.28957 | 18870 ft | 360 kts | 56° |
| 2026-04-28 22:53 | 33.92851 | -101.26299 | 18870 ft | 362 kts | 57° |
| 2026-04-28 22:53 | 33.94045 | -101.23660 | 18871 ft | 364 kts | 57° |
| 2026-04-28 22:53 | 33.95265 | -101.20985 | 18871 ft | 364 kts | 56° |
| 2026-04-28 22:54 | 33.96494 | -101.18312 | 18870 ft | 365 kts | 56° |
| 2026-04-28 22:54 | 33.97727 | -101.15628 | 18874 ft | 366 kts | 56° |
| 2026-04-28 22:54 | 33.98959 | -101.12945 | 18874 ft | 366 kts | 56° |
| 2026-04-28 22:54 | 34.00191 | -101.10253 | 18873 ft | 366 kts | 56° |
| 2026-04-28 22:55 | 34.01419 | -101.07564 | 18874 ft | 367 kts | 56° |
| 2026-04-28 22:55 | 34.02650 | -101.04866 | 18874 ft | 367 kts | 56° |
| 2026-04-28 22:55 | 34.03879 | -101.02169 | 18881 ft | 367 kts | 56° |
| 2026-04-28 22:55 | 34.05107 | -100.99474 | 18889 ft | 367 kts | 56° |
| 2026-04-28 22:56 | 34.06333 | -100.96783 | 18893 ft | 367 kts | 56° |
| 2026-04-28 22:56 | 34.07563 | -100.94084 | 18892 ft | 367 kts | 56° |
| 2026-04-28 22:56 | 34.08794 | -100.91379 | 18892 ft | 367 kts | 56° |
| 2026-04-28 22:56 | 34.10004 | -100.88718 | 18890 ft | 367 kts | 56° |
| 2026-04-28 22:57 | 34.11230 | -100.86018 | 18893 ft | 367 kts | 56° |
| 2026-04-28 22:57 | 34.12452 | -100.83322 | 18895 ft | 366 kts | 56° |
| 2026-04-28 22:57 | 34.13680 | -100.80615 | 18897 ft | 367 kts | 56° |
| 2026-04-28 22:57 | 34.14906 | -100.77913 | 18893 ft | 367 kts | 56° |
| 2026-04-28 22:58 | 34.16132 | -100.75207 | 18901 ft | 367 kts | 57° |
| 2026-04-28 22:58 | 34.17356 | -100.72499 | 18901 ft | 367 kts | 56° |
| 2026-04-28 22:58 | 34.18575 | -100.69796 | 18897 ft | 367 kts | 56° |
| 2026-04-28 22:58 | 34.19799 | -100.67089 | 18897 ft | 367 kts | 56° |
| 2026-04-28 22:59 | 34.21010 | -100.64411 | 18898 ft | 367 kts | 56° |
| 2026-04-28 22:59 | 34.22230 | -100.61708 | 18898 ft | 367 kts | 57° |
| 2026-04-28 22:59 | 34.23450 | -100.58999 | 18898 ft | 367 kts | 57° |
| 2026-04-28 22:59 | 34.24668 | -100.56288 | 18895 ft | 367 kts | 56° |
| 2026-04-28 23:00 | 34.25890 | -100.53571 | 18894 ft | 368 kts | 56° |
| 2026-04-28 23:00 | 34.27114 | -100.50860 | 18896 ft | 368 kts | 56° |
| 2026-04-28 23:00 | 34.28341 | -100.48140 | 18898 ft | 368 kts | 56° |
| 2026-04-28 23:00 | 34.29564 | -100.45418 | 18916 ft | 369 kts | 56° |
| 2026-04-28 23:01 | 34.30786 | -100.42686 | 18910 ft | 370 kts | 56° |
| 2026-04-28 23:01 | 34.32011 | -100.39947 | 18908 ft | 370 kts | 56° |
| 2026-04-28 23:01 | 34.33241 | -100.37203 | 18906 ft | 370 kts | 56° |
| 2026-04-28 23:01 | 34.34470 | -100.34462 | 18902 ft | 370 kts | 56° |